createdAt,value
2023-08-02T00:02:09.691Z,99729.81
2023-08-02T00:05:11.370Z,99744.56
2023-08-02T00:08:12.960Z,99750.75
2023-08-02T00:11:18.519Z,99740.25
2023-08-02T00:14:20.266Z,99737.16
2023-08-02T00:17:22.108Z,99742.13
2023-08-02T00:20:23.719Z,99737.63
2023-08-02T00:23:25.361Z,99744.41
2023-08-02T00:26:28.790Z,99734.97
2023-08-02T00:29:30.424Z,99749.16
2023-08-02T00:32:32.091Z,99756.91
2023-08-02T00:35:33.731Z,99740.09
2023-08-02T00:38:35.348Z,99750.34
2023-08-02T00:41:36.941Z,99741.09
2023-08-02T00:44:38.540Z,99754.66
2023-08-02T00:47:40.284Z,99752.78
2023-08-02T00:50:41.908Z,99751.31
2023-08-02T00:53:44.593Z,99758.69
2023-08-02T00:56:46.725Z,99770.78
2023-08-02T00:59:48.390Z,99784.25
2023-08-02T01:02:50.637Z,99782.41
2023-08-02T01:05:59.917Z,99778.94
2023-08-02T01:09:22.005Z,99789.41
2023-08-02T01:12:25.681Z,99803.34
2023-08-02T01:15:28.438Z,99807.44
2023-08-02T01:18:30.295Z,99807.78
2023-08-02T01:21:31.927Z,99816.56
2023-08-02T01:24:35.706Z,99806.03
2023-08-02T01:27:52.370Z,99798.34
2023-08-02T01:30:55.262Z,99804.44
2023-08-02T01:33:59.376Z,99798.28
2023-08-02T01:37:01.074Z,99801.41
2023-08-02T01:40:06.362Z,99797.06
2023-08-02T01:43:08.108Z,99790.75
2023-08-02T01:46:09.931Z,99794.22
2023-08-02T01:49:11.661Z,99797.28
2023-08-02T01:52:13.416Z,99792.31
2023-08-02T01:55:15.175Z,99792.50
2023-08-02T01:58:16.822Z,99799.06
2023-08-02T02:01:18.465Z,99798.75
2023-08-02T02:04:20.075Z,99799.88
2023-08-02T02:07:21.796Z,99814.63
2023-08-02T02:10:23.413Z,99813.03
2023-08-02T02:13:25.876Z,99800.56
2023-08-02T02:16:27.551Z,99812.22
2023-08-02T02:19:29.182Z,99818.75
2023-08-02T02:22:30.886Z,99824.34
2023-08-02T02:25:32.657Z,99817.81
2023-08-02T02:28:34.277Z,99829.41
2023-08-02T02:31:35.992Z,99825.16
2023-08-02T02:34:37.715Z,99827.38
2023-08-02T02:37:39.951Z,99828.63
2023-08-02T02:40:41.569Z,99831.44
2023-08-02T02:43:43.147Z,99841.19
2023-08-02T02:46:45.066Z,99843.94
2023-08-02T02:49:46.864Z,99850.56
2023-08-02T02:52:48.680Z,99856.88
2023-08-02T02:55:50.348Z,99870.44
2023-08-02T02:58:51.984Z,99861.09
2023-08-02T03:01:53.661Z,99870.06
2023-08-02T03:04:55.336Z,99872.94
2023-08-02T03:07:56.947Z,99870.19
2023-08-02T03:10:58.622Z,99866.91
2023-08-02T03:14:02.184Z,99874.88
2023-08-02T03:17:04.027Z,99877.34
2023-08-02T03:20:06.604Z,99871.69
2023-08-02T03:23:08.798Z,99880.97
2023-08-02T03:26:10.682Z,99884.00
2023-08-02T03:29:12.305Z,99878.84
2023-08-02T03:32:14.073Z,99874.63
2023-08-02T03:35:15.890Z,99883.88
2023-08-02T03:38:17.826Z,99879.19
2023-08-02T03:41:19.575Z,99884.88
2023-08-02T03:44:21.467Z,99880.47
2023-08-02T03:47:23.173Z,99886.63
2023-08-02T03:50:24.911Z,99887.81
2023-08-02T03:53:27.747Z,99893.78
2023-08-02T03:56:29.396Z,99873.31
2023-08-02T03:59:30.994Z,99872.13
2023-08-02T04:02:33.742Z,99874.84
2023-08-02T04:05:35.419Z,99863.19
2023-08-02T04:08:37.000Z,99867.75
2023-08-02T04:11:38.591Z,99873.34
2023-08-02T04:14:40.179Z,99875.69
2023-08-02T04:17:41.928Z,99885.06
2023-08-02T04:20:43.659Z,99881.81
2023-08-02T04:23:45.315Z,99876.09
2023-08-02T04:26:47.009Z,99869.63
2023-08-02T04:29:50.418Z,99880.78
2023-08-02T04:32:52.131Z,99884.13
2023-08-02T04:35:53.863Z,99872.66
2023-08-02T04:38:55.597Z,99883.00
2023-08-02T04:42:01.646Z,99881.22
2023-08-02T04:45:03.376Z,99888.44
2023-08-02T04:48:05.198Z,99889.41
2023-08-02T04:51:08.831Z,99894.16
2023-08-02T04:54:10.510Z,99888.25
2023-08-02T04:57:12.144Z,99896.06
2023-08-02T05:00:14.116Z,99890.03
2023-08-02T05:03:15.774Z,99889.03
2023-08-02T05:06:17.429Z,99894.50
2023-08-02T05:09:19.102Z,99888.50
2023-08-02T05:12:20.990Z,99900.63
2023-08-02T05:15:22.653Z,99899.03
2023-08-02T05:18:24.308Z,99908.72
2023-08-02T05:21:25.997Z,99907.72
2023-08-02T05:24:27.631Z,99907.13
2023-08-02T05:27:29.714Z,99909.22
2023-08-02T05:30:32.887Z,99917.47
2023-08-02T05:33:34.513Z,99912.16
2023-08-02T05:36:36.219Z,99921.06
2023-08-02T05:39:37.808Z,99932.78
2023-08-02T05:42:39.888Z,99933.63
2023-08-02T05:45:41.672Z,99938.56
2023-08-02T05:48:43.341Z,99933.44
2023-08-02T05:51:45.282Z,99936.31
2023-08-02T05:54:47.073Z,99937.97
2023-08-02T05:57:54.724Z,99932.22
2023-08-02T06:00:56.475Z,99933.44
2023-08-02T06:03:58.192Z,99934.06
2023-08-02T06:06:59.857Z,99944.97
2023-08-02T06:10:01.913Z,99945.94
2023-08-02T06:13:03.558Z,99949.75
2023-08-02T06:16:05.903Z,99948.72
2023-08-02T06:19:07.553Z,99960.22
2023-08-02T06:22:10.030Z,99951.09
2023-08-02T06:25:11.670Z,99962.25
2023-08-02T06:28:13.279Z,99967.75
2023-08-02T06:31:14.942Z,99967.84
2023-08-02T06:34:16.629Z,99975.91
2023-08-02T06:37:18.230Z,99979.19
2023-08-02T06:40:20.607Z,99975.59
2023-08-02T06:43:22.289Z,99975.91
2023-08-02T06:46:24.001Z,99976.56
2023-08-02T06:49:25.636Z,99973.22
2023-08-02T06:52:27.328Z,99976.88
2023-08-02T06:55:28.929Z,99969.88
2023-08-02T06:58:31.089Z,99975.25
2023-08-02T07:01:32.845Z,99965.91
2023-08-02T07:04:34.559Z,99976.94
2023-08-02T07:07:36.237Z,99969.75
2023-08-02T07:10:37.816Z,99982.56
2023-08-02T07:13:43.699Z,99990.44
2023-08-02T07:16:45.367Z,99998.78
2023-08-02T07:19:47.014Z,99990.94
2023-08-02T07:22:48.692Z,99981.38
2023-08-02T07:25:50.332Z,99990.38
2023-08-02T07:28:52.269Z,99968.81
2023-08-02T07:31:54.039Z,99985.31
2023-08-02T07:34:55.715Z,99989.94
2023-08-02T07:37:57.392Z,99989.59
2023-08-02T07:40:59.034Z,99983.88
2023-08-02T07:44:00.693Z,99986.31
2023-08-02T07:47:02.386Z,99980.03
2023-08-02T07:50:05.324Z,99975.00
2023-08-02T07:53:08.350Z,99984.31
2023-08-02T07:56:10.582Z,99979.13
2023-08-02T07:59:12.268Z,99979.94
2023-08-02T08:02:14.131Z,99978.91
2023-08-02T08:05:15.859Z,99969.72
2023-08-02T08:08:18.126Z,99971.03
2023-08-02T08:11:22.440Z,99966.72
2023-08-02T08:14:25.701Z,99977.03
2023-08-02T08:17:27.361Z,99980.88
2023-08-02T08:20:29.005Z,99970.94
2023-08-02T08:23:34.666Z,99977.06
2023-08-02T08:26:36.408Z,99983.19
2023-08-02T08:29:37.994Z,99990.50
2023-08-02T08:32:39.684Z,99979.31
2023-08-02T08:35:41.618Z,99975.31
2023-08-02T08:38:45.104Z,99964.97
2023-08-02T08:41:47.254Z,99979.13
2023-08-02T08:44:48.929Z,99982.47
2023-08-02T08:47:52.052Z,99991.09
2023-08-02T08:50:57.348Z,99989.59
2023-08-02T08:54:05.638Z,99993.56
2023-08-02T08:57:09.390Z,99987.91
2023-08-02T09:00:11.735Z,99992.50
2023-08-02T09:03:16.600Z,99988.78
2023-08-02T09:06:18.798Z,99989.16
2023-08-02T09:09:20.525Z,99977.63
2023-08-02T09:12:24.683Z,99988.19
2023-08-02T09:15:26.308Z,99982.50
2023-08-02T09:18:47.721Z,99998.22
2023-08-02T09:22:09.317Z,99994.88
2023-08-02T09:25:28.713Z,99991.31
2023-08-02T09:28:30.316Z,99992.22
2023-08-02T09:31:34.897Z,99976.50
2023-08-02T09:35:06.126Z,99979.44
2023-08-02T09:38:11.372Z,99973.75
2023-08-02T09:41:51.616Z,99973.25
2023-08-02T09:44:58.914Z,99971.31
2023-08-02T09:48:00.606Z,99975.88
2023-08-02T09:51:04.726Z,99975.28
2023-08-02T09:54:09.542Z,99970.75
2023-08-02T09:57:11.294Z,99979.13
2023-08-02T10:00:13.446Z,99962.41
2023-08-02T10:03:24.896Z,99958.94
2023-08-02T10:06:51.025Z,99953.66
2023-08-02T10:09:56.363Z,99957.84
2023-08-02T10:13:08.080Z,99954.03
2023-08-02T10:16:14.069Z,99959.22
2023-08-02T10:19:16.157Z,99951.09
2023-08-02T10:22:19.392Z,99952.16
2023-08-02T10:25:22.171Z,99951.84
2023-08-02T10:28:24.514Z,99942.88
2023-08-02T10:31:26.964Z,99940.38
2023-08-02T10:34:37.963Z,99940.00
2023-08-02T10:37:59.835Z,99943.22
2023-08-02T10:41:16.190Z,99951.03
2023-08-02T10:44:19.431Z,99937.50
2023-08-02T10:47:28.960Z,99943.97
2023-08-02T10:50:46.202Z,99933.66
2023-08-02T10:54:13.288Z,99925.97
2023-08-02T10:57:16.043Z,99924.72
2023-08-02T11:00:20.268Z,99910.78
2023-08-02T11:03:31.961Z,99916.78
2023-08-02T11:06:36.142Z,99912.75
2023-08-02T11:09:38.163Z,99906.66
2023-08-02T11:12:39.828Z,99902.16
2023-08-02T11:15:41.560Z,99893.63
2023-08-02T11:18:50.903Z,99893.03
2023-08-02T11:21:53.961Z,99898.25
2023-08-02T11:24:57.427Z,99873.78
2023-08-02T11:28:04.310Z,99868.34
2023-08-02T11:31:06.729Z,99872.41
2023-08-02T11:34:08.478Z,99857.78
2023-08-02T11:37:10.790Z,99855.59
2023-08-02T11:40:25.514Z,99862.97
2023-08-02T11:43:38.130Z,99866.41
2023-08-02T11:46:40.110Z,99852.53
2023-08-02T11:49:53.272Z,99853.97
2023-08-02T11:53:08.292Z,99843.66
2023-08-02T11:56:10.288Z,99844.00
2023-08-02T11:59:12.838Z,99850.16
2023-08-02T12:02:27.429Z,99846.31
2023-08-02T12:05:29.096Z,99836.66
2023-08-02T12:08:30.756Z,99833.66
2023-08-02T12:11:32.405Z,99842.75
2023-08-02T12:14:36.186Z,99844.78
2023-08-02T12:17:39.264Z,99840.69
2023-08-02T12:20:40.919Z,99839.31
2023-08-02T12:23:42.559Z,99836.66
2023-08-02T12:26:45.181Z,99820.25
2023-08-02T12:29:48.426Z,99820.09
2023-08-02T12:32:50.176Z,99830.50
2023-08-02T12:35:51.861Z,99833.56
2023-08-02T12:38:53.639Z,99841.84
2023-08-02T12:41:56.017Z,99838.84
2023-08-02T12:45:07.989Z,99836.16
2023-08-02T12:48:17.508Z,99816.19
2023-08-02T12:51:19.121Z,99823.09
2023-08-02T12:54:20.830Z,99813.88
2023-08-02T12:57:22.656Z,99805.88
2023-08-02T13:00:24.317Z,99807.25
2023-08-02T13:03:26.026Z,99807.03
2023-08-02T13:06:28.535Z,99804.31
2023-08-02T13:09:30.370Z,99799.63
2023-08-02T13:12:37.779Z,99800.41
2023-08-02T13:15:39.886Z,99809.03
2023-08-02T13:18:41.820Z,99805.03
2023-08-02T13:21:43.502Z,99795.44
2023-08-02T13:24:45.242Z,99793.72
2023-08-02T13:27:47.303Z,99793.88
2023-08-02T13:30:48.992Z,99784.78
2023-08-02T13:33:50.670Z,99790.81
2023-08-02T13:36:52.365Z,99775.25
2023-08-02T13:39:56.633Z,99766.88
2023-08-02T13:42:59.844Z,99766.72
2023-08-02T13:46:01.523Z,99774.28
2023-08-02T13:49:03.267Z,99767.81
2023-08-02T13:52:05.904Z,99765.31
2023-08-02T13:55:08.012Z,99761.91
2023-08-02T13:58:09.760Z,99758.03
2023-08-02T14:01:11.458Z,99745.91
2023-08-02T14:04:13.208Z,99744.19
2023-08-02T14:07:14.952Z,99738.28
2023-08-02T14:10:16.688Z,99733.88
2023-08-02T14:13:18.326Z,99732.44
2023-08-02T14:16:19.992Z,99739.41
2023-08-02T14:19:21.621Z,99740.72
2023-08-02T14:22:23.276Z,99738.78
2023-08-02T14:25:25.026Z,99733.56
2023-08-02T14:28:26.587Z,99722.34
2023-08-02T14:31:28.323Z,99723.84
2023-08-02T14:34:30.066Z,99710.75
2023-08-02T14:37:31.747Z,99720.38
2023-08-02T14:40:34.684Z,99715.31
2023-08-02T14:43:36.818Z,99712.28
2023-08-02T14:46:38.827Z,99717.03
2023-08-02T14:49:40.581Z,99712.47
2023-08-02T14:52:42.319Z,99707.16
2023-08-02T14:55:43.982Z,99699.28
2023-08-02T14:58:45.598Z,99698.28
2023-08-02T15:01:47.316Z,99693.84
2023-08-02T15:04:48.973Z,99707.16
2023-08-02T15:07:50.656Z,99694.03
2023-08-02T15:10:53.880Z,99694.19
2023-08-02T15:13:56.855Z,99692.16
2023-08-02T15:16:58.499Z,99686.91
2023-08-02T15:20:00.426Z,99673.69
2023-08-02T15:23:02.472Z,99662.81
2023-08-02T15:26:04.109Z,99674.97
2023-08-02T15:29:05.684Z,99671.44
2023-08-02T15:32:07.779Z,99666.59
2023-08-02T15:35:09.517Z,99665.13
2023-08-02T15:38:11.389Z,99662.00
2023-08-02T15:41:12.977Z,99670.22
2023-08-02T15:44:14.644Z,99658.50
2023-08-02T15:47:16.286Z,99657.56
2023-08-02T15:50:17.982Z,99651.16
2023-08-02T15:53:19.634Z,99642.63
2023-08-02T15:56:21.232Z,99636.97
2023-08-02T15:59:22.929Z,99637.78
2023-08-02T16:02:24.597Z,99640.78
2023-08-02T16:05:26.211Z,99643.72
2023-08-02T16:08:27.930Z,99653.50
2023-08-02T16:11:29.569Z,99650.13
2023-08-02T16:14:31.225Z,99641.13
2023-08-02T16:17:32.860Z,99639.09
2023-08-02T16:20:34.642Z,99649.78
2023-08-02T16:23:36.589Z,99644.13
2023-08-02T16:26:38.301Z,99642.78
2023-08-02T16:29:39.908Z,99631.44
2023-08-02T16:32:41.660Z,99632.81
2023-08-02T16:35:45.345Z,99627.56
2023-08-02T16:38:46.998Z,99625.09
2023-08-02T16:41:48.652Z,99629.00
2023-08-02T16:44:50.328Z,99628.09
2023-08-02T16:47:51.950Z,99630.28
2023-08-02T16:50:53.569Z,99635.25
2023-08-02T16:53:55.162Z,99635.81
2023-08-02T16:56:56.901Z,99636.38
2023-08-02T16:59:58.527Z,99634.16
2023-08-02T17:03:00.257Z,99636.41
2023-08-02T17:06:01.975Z,99639.97
2023-08-02T17:09:04.081Z,99637.56
2023-08-02T17:12:06.648Z,99638.78
2023-08-02T17:15:08.722Z,99642.84
2023-08-02T17:18:10.382Z,99637.53
2023-08-02T17:21:12.125Z,99633.66
2023-08-02T17:24:13.860Z,99624.75
2023-08-02T17:27:15.517Z,99625.03
2023-08-02T17:30:17.127Z,99623.91
2023-08-02T17:33:18.952Z,99620.50
2023-08-02T17:36:20.683Z,99618.13
2023-08-02T17:39:22.279Z,99621.84
2023-08-02T17:42:25.101Z,99610.44
2023-08-02T17:45:27.838Z,99608.78
2023-08-02T17:48:30.008Z,99615.44
2023-08-02T17:51:33.488Z,99608.03
2023-08-02T17:54:35.159Z,99603.22
2023-08-02T17:57:36.800Z,99604.47
2023-08-02T18:00:40.074Z,99605.19
2023-08-02T18:03:43.611Z,99599.59
2023-08-02T18:06:45.387Z,99602.19
2023-08-02T18:09:47.088Z,99598.56
2023-08-02T18:12:48.755Z,99600.47
2023-08-02T18:15:50.391Z,99606.00
2023-08-02T18:18:52.021Z,99604.09
2023-08-02T18:21:55.725Z,99608.22
2023-08-02T18:24:57.363Z,99609.06
2023-08-02T18:28:01.553Z,99609.13
2023-08-02T18:31:03.305Z,99594.50
2023-08-02T18:34:05.015Z,99603.53
2023-08-02T18:37:07.205Z,99605.53
2023-08-02T18:40:10.093Z,99600.72
2023-08-02T18:43:13.941Z,99602.22
2023-08-02T18:46:16.895Z,99594.75
2023-08-02T18:49:18.729Z,99590.78
2023-08-02T18:52:21.675Z,99592.97
2023-08-02T18:55:23.380Z,99603.94
2023-08-02T18:58:26.845Z,99600.06
2023-08-02T19:01:29.448Z,99610.22
2023-08-02T19:04:35.075Z,99608.09
2023-08-02T19:07:38.352Z,99619.66
2023-08-02T19:10:40.382Z,99624.91
2023-08-02T19:13:45.072Z,99624.56
2023-08-02T19:16:47.275Z,99621.38
2023-08-02T19:19:49.341Z,99623.69
2023-08-02T19:22:51.002Z,99618.25
2023-08-02T19:25:53.033Z,99616.03
2023-08-02T19:28:56.138Z,99632.69
2023-08-02T19:31:59.792Z,99627.06
2023-08-02T19:35:01.457Z,99635.72
2023-08-02T19:38:04.757Z,99637.44
2023-08-02T19:41:06.525Z,99631.69
2023-08-02T19:44:08.955Z,99631.31
2023-08-02T19:47:10.662Z,99643.09
2023-08-02T19:50:12.305Z,99632.66
2023-08-02T19:53:16.782Z,99635.78
2023-08-02T19:56:25.201Z,99623.53
2023-08-02T19:59:28.968Z,99621.94
2023-08-02T20:02:30.621Z,99625.53
2023-08-02T20:05:59.782Z,99621.66
2023-08-02T20:09:01.464Z,99618.22
2023-08-02T20:12:04.289Z,99610.25
2023-08-02T20:15:09.470Z,99614.34
2023-08-02T20:18:11.341Z,99615.88
2023-08-02T20:21:21.863Z,99612.31
2023-08-02T20:24:24.995Z,99619.81
2023-08-02T20:27:26.645Z,99621.06
2023-08-02T20:30:28.299Z,99626.03
2023-08-02T20:33:29.930Z,99632.84
2023-08-02T20:36:31.576Z,99625.06
2023-08-02T20:39:33.235Z,99624.34
2023-08-02T20:42:34.860Z,99619.69
2023-08-02T20:45:36.983Z,99618.28
2023-08-02T20:48:39.323Z,99615.03
2023-08-02T20:51:46.918Z,99608.31
2023-08-02T20:54:48.636Z,99612.66
2023-08-02T20:57:52.213Z,99602.31
2023-08-02T21:00:56.633Z,99600.81
2023-08-02T21:04:01.734Z,99604.63
2023-08-02T21:07:11.742Z,99616.91
2023-08-02T21:10:27.796Z,99599.75
2023-08-02T21:13:32.905Z,99609.75
2023-08-02T21:16:35.177Z,99602.44
2023-08-02T21:19:37.160Z,99600.94
2023-08-02T21:22:38.836Z,99600.19
2023-08-02T21:25:43.105Z,99602.28
2023-08-02T21:28:44.883Z,99603.13
2023-08-02T21:31:52.609Z,99602.31
2023-08-02T21:34:54.923Z,99605.91
2023-08-02T21:37:56.540Z,99606.34
2023-08-02T21:41:01.234Z,99615.44
2023-08-02T21:44:03.782Z,99610.25
2023-08-02T21:47:06.365Z,99601.03
2023-08-02T21:50:10.035Z,99601.94
2023-08-02T21:53:20.567Z,99599.13
2023-08-02T21:56:27.696Z,99604.47
2023-08-02T21:59:29.364Z,99596.88
2023-08-02T22:02:42.122Z,99603.22
2023-08-02T22:05:47.436Z,99597.63
2023-08-02T22:08:50.209Z,99592.03
2023-08-02T22:11:51.838Z,99595.03
2023-08-02T22:15:04.471Z,99588.44
2023-08-02T22:18:06.286Z,99590.47
2023-08-02T22:21:08.315Z,99593.75
2023-08-02T22:24:09.948Z,99590.75
2023-08-02T22:27:11.533Z,99589.31
2023-08-02T22:30:13.131Z,99596.03
2023-08-02T22:33:14.860Z,99592.16
2023-08-02T22:36:16.560Z,99592.22
2023-08-02T22:39:18.179Z,99591.47
2023-08-02T22:42:19.753Z,99595.78
2023-08-02T22:45:21.563Z,99585.25
2023-08-02T22:49:11.841Z,99590.63
2023-08-02T22:51:44.892Z,99589.13
2023-08-02T22:54:47.064Z,99587.47
2023-08-02T22:57:48.697Z,99583.03
2023-08-02T23:00:50.416Z,99581.19
2023-08-02T23:03:53.085Z,99585.53
2023-08-02T23:06:54.927Z,99586.34
2023-08-02T23:10:00.287Z,99585.25
2023-08-02T23:13:05.753Z,99583.34
2023-08-02T23:16:11.272Z,99582.38
2023-08-02T23:19:17.990Z,99584.72
2023-08-02T23:22:19.750Z,99572.56
2023-08-02T23:25:21.385Z,99583.94
2023-08-02T23:28:23.455Z,99574.38
2023-08-02T23:31:26.453Z,99575.84
2023-08-02T23:34:28.117Z,99571.63
2023-08-02T23:37:29.781Z,99579.75
2023-08-02T23:40:31.481Z,99567.88
2023-08-02T23:43:33.073Z,99568.34
2023-08-02T23:46:35.004Z,99562.38
2023-08-02T23:49:36.601Z,99561.19
2023-08-02T23:52:38.272Z,99559.13
2023-08-02T23:55:39.981Z,99553.16
2023-08-02T23:58:41.564Z,99547.91
